createdAt,value
2019-04-26T00:00:54.303Z,96.70
2019-04-26T00:03:26.405Z,96.70
2019-04-26T00:05:57.196Z,96.60
2019-04-26T00:08:27.659Z,96.80
2019-04-26T00:11:11.883Z,96.90
2019-04-26T00:13:44.697Z,97.10
2019-04-26T00:16:19.564Z,97.10
2019-04-26T00:18:49.985Z,97.00
2019-04-26T00:21:20.434Z,96.80
2019-04-26T00:23:51.549Z,96.90
2019-04-26T00:26:22.241Z,96.70
2019-04-26T00:28:52.693Z,97.30
2019-04-26T00:31:23.452Z,97.30
2019-04-26T00:33:53.846Z,97.30
2019-04-26T00:36:24.354Z,97.10
2019-04-26T00:38:54.820Z,97.30
2019-04-26T00:41:25.959Z,97.30
2019-04-26T00:43:56.815Z,97.70
2019-04-26T00:46:29.727Z,97.40
2019-04-26T00:49:04.350Z,97.30
2019-04-26T00:51:36.434Z,97.50
2019-04-26T00:54:07.409Z,97.70
2019-04-26T00:56:39.757Z,97.90
2019-04-26T00:59:11.326Z,98.00
2019-04-26T01:01:44.087Z,97.90
2019-04-26T01:04:15.606Z,98.00
2019-04-26T01:06:48.354Z,97.90
2019-04-26T01:09:19.476Z,98.00
2019-04-26T01:11:49.931Z,97.90
2019-04-26T01:14:20.371Z,98.00
2019-04-26T01:16:50.752Z,98.00
2019-04-26T01:19:24.577Z,98.10
2019-04-26T01:22:02.316Z,98.00
2019-04-26T01:24:35.947Z,97.90
2019-04-26T01:27:07.673Z,98.00
2019-04-26T01:29:38.947Z,98.20
2019-04-26T01:32:12.661Z,98.20
2019-04-26T01:34:45.226Z,98.10
2019-04-26T01:37:16.247Z,98.20
2019-04-26T01:39:51.767Z,98.50
2019-04-26T01:42:26.589Z,98.30
2019-04-26T01:45:02.019Z,98.50
2019-04-26T01:47:32.768Z,98.50
2019-04-26T01:50:05.589Z,98.60
2019-04-26T01:52:35.973Z,98.30
2019-04-26T01:55:11.199Z,98.40
2019-04-26T01:57:42.723Z,98.60
2019-04-26T02:00:16.902Z,98.70
2019-04-26T02:02:54.768Z,98.50
2019-04-26T02:05:28.045Z,98.40
2019-04-26T02:07:59.104Z,98.20
2019-04-26T02:10:30.724Z,98.20
2019-04-26T02:13:01.394Z,98.30
2019-04-26T02:15:33.626Z,98.50
2019-04-26T02:18:04.630Z,98.50
2019-04-26T02:21:02.252Z,98.70
2019-04-26T02:23:39.989Z,98.80
2019-04-26T02:26:28.373Z,98.60
2019-04-26T02:28:58.815Z,98.50
2019-04-26T02:31:30.869Z,98.40
2019-04-26T02:34:04.313Z,98.60
2019-04-26T02:36:54.401Z,98.40
2019-04-26T02:39:21.090Z,98.60
2019-04-26T02:41:55.398Z,98.80
2019-04-26T02:44:31.314Z,98.70
2019-04-26T02:47:35.094Z,98.80
2019-04-26T02:50:18.326Z,98.80
2019-04-26T02:53:29.543Z,98.90
2019-04-26T02:56:34.123Z,98.80
2019-04-26T02:59:32.381Z,98.90
2019-04-26T03:02:05.362Z,98.90
2019-04-26T03:04:39.547Z,98.90
2019-04-26T03:07:14.819Z,98.80
2019-04-26T03:09:48.328Z,98.70
2019-04-26T03:12:23.233Z,99.00
2019-04-26T03:15:13.400Z,99.10
2019-04-26T03:17:43.130Z,99.00
2019-04-26T03:20:19.762Z,99.00
2019-04-26T03:23:45.924Z,99.00
2019-04-26T03:26:13.519Z,98.50
2019-04-26T03:29:12.741Z,99.10
2019-04-26T03:32:16.684Z,99.80
2019-04-26T03:35:20.867Z,99.90
2019-04-26T03:38:21.586Z,99.90
2019-04-26T03:41:15.322Z,99.90
2019-04-26T03:44:07.996Z,99.90
2019-04-26T03:46:45.978Z,99.80
2019-04-26T03:49:43.373Z,99.70
2019-04-26T03:52:21.449Z,99.40
2019-04-26T03:54:56.584Z,99.00
2019-04-26T03:57:47.707Z,99.10
2019-04-26T04:00:26.139Z,98.80
2019-04-26T04:03:05.527Z,98.90
2019-04-26T04:05:46.061Z,98.70
2019-04-26T04:08:22.298Z,98.30
2019-04-26T04:10:57.948Z,98.20
2019-04-26T04:13:44.498Z,97.80
2019-04-26T04:16:43.562Z,97.90
2019-04-26T04:19:23.047Z,97.70
2019-04-26T04:22:00.635Z,97.60
2019-04-26T04:24:49.127Z,97.30
2019-04-26T04:27:36.220Z,97.60
2019-04-26T04:30:13.817Z,97.50
2019-04-26T04:32:54.749Z,97.40
2019-04-26T04:35:27.823Z,97.30
2019-04-26T04:38:32.805Z,97.50
2019-04-26T04:41:27.253Z,97.10
2019-04-26T04:44:23.455Z,96.70
2019-04-26T04:47:03.173Z,96.60
2019-04-26T04:49:42.411Z,96.10
2019-04-26T04:52:52.153Z,95.90
2019-04-26T04:55:45.196Z,96.10
2019-04-26T04:58:23.143Z,96.70
2019-04-26T05:01:34.849Z,96.60
2019-04-26T05:04:20.383Z,96.70
2019-04-26T05:07:29.811Z,96.60
2019-04-26T05:10:10.213Z,96.40
2019-04-26T05:12:52.087Z,96.20
2019-04-26T05:15:31.641Z,96.00
2019-04-26T05:18:24.914Z,96.00
2019-04-26T05:21:08.730Z,95.80
2019-04-26T05:24:12.705Z,95.50
2019-04-26T05:27:09.545Z,94.70
2019-04-26T05:30:10.984Z,94.50
2019-04-26T05:32:54.897Z,94.40
2019-04-26T05:35:51.096Z,93.40
2019-04-26T05:39:06.890Z,93.00
2019-04-26T05:42:16.094Z,92.20
2019-04-26T05:45:35.585Z,92.30
2019-04-26T05:48:42.337Z,91.80
2019-04-26T05:51:34.102Z,91.40
2019-04-26T05:54:29.772Z,90.90
2019-04-26T05:57:26.971Z,91.00
2019-04-26T06:00:44.004Z,90.20
2019-04-26T06:04:14.300Z,90.00
2019-04-26T06:07:03.467Z,90.00
2019-04-26T06:09:55.165Z,88.60
2019-04-26T06:12:56.573Z,88.60
2019-04-26T06:16:06.576Z,86.70
2019-04-26T06:19:02.501Z,84.20
2019-04-26T06:21:43.368Z,83.60
2019-04-26T06:24:42.499Z,82.10
2019-04-26T06:27:38.642Z,82.30
2019-04-26T06:30:13.451Z,79.90
2019-04-26T06:33:03.997Z,79.80
2019-04-26T06:35:35.935Z,77.90
2019-04-26T06:38:44.154Z,77.90
2019-04-26T06:42:06.643Z,74.10
2019-04-26T06:45:17.617Z,74.50
2019-04-26T06:48:06.069Z,70.90
2019-04-26T06:51:24.637Z,68.80
2019-04-26T06:54:17.322Z,65.90
2019-04-26T06:57:56.507Z,59.40
2019-04-26T07:00:48.347Z,54.90
2019-04-26T07:03:48.292Z,51.60
2019-04-26T07:06:34.922Z,48.90
2019-04-26T07:09:13.536Z,46.40
2019-04-26T07:12:07.813Z,45.30
2019-04-26T07:15:10.070Z,44.80
2019-04-26T07:18:06.411Z,44.40
2019-04-26T07:20:45.770Z,44.00
2019-04-26T07:23:37.220Z,41.60
2019-04-26T07:26:46.769Z,40.40
2019-04-26T07:29:44.379Z,41.00
2019-04-26T07:32:28.360Z,39.20
2019-04-26T07:35:19.780Z,38.60
2019-04-26T07:38:21.965Z,37.70
2019-04-26T07:41:39.152Z,36.60
2019-04-26T07:44:33.673Z,36.10
2019-04-26T07:47:31.333Z,35.10
2019-04-26T07:50:40.729Z,34.70
2019-04-26T07:53:32.094Z,33.70
2019-04-26T07:56:13.559Z,34.00
2019-04-26T07:59:38.611Z,32.30
2019-04-26T08:02:36.883Z,33.30
2019-04-26T08:05:25.063Z,32.70
2019-04-26T08:08:03.002Z,30.40
2019-04-26T08:10:38.105Z,30.70
2019-04-26T08:13:20.620Z,30.00
2019-04-26T08:16:10.397Z,30.70
2019-04-26T08:18:48.303Z,29.40
2019-04-26T08:21:23.369Z,29.90
2019-04-26T08:23:58.523Z,30.40
2019-04-26T08:26:32.136Z,30.50
2019-04-26T08:29:06.686Z,30.50
2019-04-26T08:31:40.360Z,32.50
2019-04-26T08:34:16.688Z,33.50
2019-04-26T08:36:49.969Z,33.80
2019-04-26T08:39:23.404Z,34.40
2019-04-26T08:41:56.868Z,35.80
2019-04-26T08:44:34.716Z,35.90
2019-04-26T08:47:13.918Z,36.50
2019-04-26T08:49:47.711Z,36.30
2019-04-26T08:52:22.981Z,36.60
2019-04-26T08:54:56.536Z,36.70
2019-04-26T08:57:31.052Z,37.00
2019-04-26T09:00:05.330Z,37.50
2019-04-26T09:02:44.944Z,37.30
2019-04-26T09:05:40.237Z,38.80
2019-04-26T09:08:13.710Z,39.00
2019-04-26T09:10:47.996Z,39.90
2019-04-26T09:13:20.874Z,40.80
2019-04-26T09:16:07.257Z,41.20
2019-04-26T09:18:43.487Z,41.10
2019-04-26T09:21:13.346Z,41.60
2019-04-26T09:23:44.345Z,41.20
2019-04-26T09:26:20.565Z,39.60
2019-04-26T09:29:08.532Z,37.90
2019-04-26T09:31:40.608Z,37.20
2019-04-26T09:34:21.307Z,35.80
2019-04-26T09:36:51.792Z,33.40
2019-04-26T09:39:22.967Z,33.30
2019-04-26T09:41:55.333Z,32.50
2019-04-26T09:44:34.044Z,32.60
2019-04-26T09:47:06.258Z,34.20
2019-04-26T09:49:54.493Z,33.70
2019-04-26T09:52:26.724Z,34.50
2019-04-26T09:54:57.132Z,35.00
2019-04-26T09:57:27.566Z,36.40
2019-04-26T09:59:58.049Z,38.30
2019-04-26T10:02:33.726Z,38.30
2019-04-26T10:05:02.281Z,38.50
2019-04-26T10:07:33.398Z,37.90
2019-04-26T10:10:06.017Z,34.00
2019-04-26T10:12:39.274Z,32.90
2019-04-26T10:15:11.544Z,33.20
2019-04-26T10:17:42.052Z,33.60
2019-04-26T10:20:12.693Z,32.50
2019-04-26T10:22:43.136Z,32.20
2019-04-26T10:25:16.933Z,31.10
2019-04-26T10:27:47.131Z,31.50
2019-04-26T10:30:18.162Z,31.60
2019-04-26T10:32:48.594Z,32.30
2019-04-26T10:35:21.796Z,33.70
2019-04-26T10:37:52.625Z,33.90
2019-04-26T10:40:35.090Z,34.10
2019-04-26T10:42:55.408Z,32.70
2019-04-26T10:45:27.188Z,30.00
2019-04-26T10:47:57.720Z,30.70
2019-04-26T10:50:32.964Z,29.00
2019-04-26T10:53:06.557Z,29.20
2019-04-26T10:55:46.383Z,29.30
2019-04-26T10:58:28.088Z,30.20
2019-04-26T11:01:01.983Z,29.30
2019-04-26T11:03:34.928Z,30.00
2019-04-26T11:06:04.779Z,29.90
2019-04-26T11:08:35.382Z,30.60
2019-04-26T11:11:09.623Z,32.40
2019-04-26T11:13:41.040Z,31.70
2019-04-26T11:16:11.718Z,31.80
2019-04-26T11:18:42.181Z,32.20
2019-04-26T11:21:16.406Z,33.30
2019-04-26T11:23:45.633Z,33.60
2019-04-26T11:26:16.863Z,34.50
2019-04-26T11:28:47.265Z,31.70
2019-04-26T11:31:17.718Z,31.60
2019-04-26T11:33:49.568Z,31.50
2019-04-26T11:36:20.311Z,30.30
2019-04-26T11:38:50.719Z,31.00
2019-04-26T11:41:21.174Z,30.10
2019-04-26T11:43:52.990Z,31.80
2019-04-26T11:46:29.073Z,29.50
2019-04-26T11:48:59.329Z,29.70
2019-04-26T11:51:28.994Z,29.80
2019-04-26T11:53:59.394Z,30.50
2019-04-26T11:56:29.842Z,30.80
2019-04-26T11:59:00.969Z,30.60
2019-04-26T12:01:32.832Z,30.20
2019-04-26T12:04:10.719Z,31.40
2019-04-26T12:06:48.798Z,32.20
2019-04-26T12:09:23.685Z,32.90
2019-04-26T12:12:04.489Z,33.30
2019-04-26T12:14:29.512Z,33.10
2019-04-26T12:16:59.691Z,33.40
2019-04-26T12:19:30.616Z,33.50
2019-04-26T12:22:04.289Z,34.00
2019-04-26T12:24:34.482Z,32.90
2019-04-26T12:27:06.213Z,32.80
2019-04-26T12:29:36.642Z,32.80
2019-04-26T12:32:07.082Z,33.30
2019-04-26T12:34:37.552Z,33.00
2019-04-26T12:37:08.056Z,32.70
2019-04-26T12:39:38.526Z,32.80
2019-04-26T12:42:12.358Z,33.30
2019-04-26T12:44:45.661Z,33.00
2019-04-26T12:47:17.742Z,33.60
2019-04-26T12:49:48.144Z,32.90
2019-04-26T12:52:21.577Z,33.30
2019-04-26T12:54:51.776Z,34.70
2019-04-26T12:57:22.214Z,34.80
2019-04-26T12:59:52.648Z,33.50
2019-04-26T13:02:23.100Z,32.40
2019-04-26T13:04:53.607Z,31.00
2019-04-26T13:07:25.517Z,31.10
2019-04-26T13:10:03.743Z,31.70
2019-04-26T13:12:51.353Z,32.60
2019-04-26T13:15:56.469Z,33.00
2019-04-26T13:18:27.404Z,33.60
2019-04-26T13:20:58.610Z,32.60
2019-04-26T13:23:31.262Z,32.90
2019-04-26T13:26:01.861Z,33.80
2019-04-26T13:28:32.606Z,32.60
2019-04-26T13:31:03.043Z,33.50
2019-04-26T13:33:33.463Z,32.60
2019-04-26T13:36:04.071Z,32.80
2019-04-26T13:38:34.512Z,32.50
2019-04-26T13:41:06.348Z,32.10
2019-04-26T13:43:36.918Z,32.70
2019-04-26T13:46:11.588Z,32.40
2019-04-26T13:48:46.646Z,30.60
2019-04-26T13:51:21.389Z,31.50
2019-04-26T13:53:54.276Z,31.60
2019-04-26T13:56:23.991Z,30.90
2019-04-26T13:58:58.163Z,31.00
2019-04-26T14:01:26.807Z,31.20
2019-04-26T14:03:57.328Z,31.80
2019-04-26T14:06:27.859Z,32.10
2019-04-26T14:09:02.765Z,31.80
2019-04-26T14:11:30.570Z,32.80
2019-04-26T14:14:01.836Z,32.70
2019-04-26T14:16:32.379Z,32.10
2019-04-26T14:19:03.744Z,31.20
2019-04-26T14:21:34.863Z,31.00
2019-04-26T14:24:23.831Z,30.90
2019-04-26T14:26:56.799Z,30.40
2019-04-26T14:29:28.441Z,31.70
2019-04-26T14:31:59.695Z,30.50
2019-04-26T14:34:30.123Z,30.80
2019-04-26T14:37:06.704Z,31.90
2019-04-26T14:39:49.274Z,32.30
2019-04-26T14:42:05.085Z,32.20
2019-04-26T14:44:35.618Z,33.30
2019-04-26T14:47:13.908Z,32.60
2019-04-26T14:49:40.393Z,31.90
2019-04-26T14:52:10.337Z,31.80
2019-04-26T14:54:41.401Z,31.40
2019-04-26T14:57:21.378Z,31.60
2019-04-26T14:59:47.092Z,31.90
2019-04-26T15:02:32.833Z,31.70
2019-04-26T15:05:12.210Z,32.00
2019-04-26T15:07:50.889Z,31.90
2019-04-26T15:10:17.576Z,32.30
2019-04-26T15:12:58.351Z,32.30
2019-04-26T15:15:21.073Z,32.80
2019-04-26T15:17:55.065Z,32.30
2019-04-26T15:20:24.319Z,32.10
2019-04-26T15:22:55.885Z,31.80
2019-04-26T15:25:26.342Z,31.90
2019-04-26T15:27:57.122Z,31.30
2019-04-26T15:30:27.889Z,32.10
2019-04-26T15:32:58.319Z,31.90
2019-04-26T15:35:32.626Z,32.60
2019-04-26T15:38:01.444Z,32.30
2019-04-26T15:40:43.387Z,32.50
2019-04-26T15:43:24.505Z,32.10
2019-04-26T15:46:02.392Z,32.30
2019-04-26T15:48:36.914Z,32.00
2019-04-26T15:51:07.515Z,32.40
2019-04-26T15:53:37.953Z,32.40
2019-04-26T15:56:10.138Z,32.90
2019-04-26T15:58:47.217Z,32.90
2019-04-26T16:01:13.878Z,32.80
2019-04-26T16:03:44.750Z,33.50
2019-04-26T16:06:15.272Z,33.00
2019-04-26T16:08:45.668Z,33.60
2019-04-26T16:11:16.107Z,33.40
2019-04-26T16:13:54.212Z,33.50
2019-04-26T16:16:20.509Z,33.90
2019-04-26T16:18:55.559Z,34.10
2019-04-26T16:21:22.905Z,34.10
2019-04-26T16:23:55.276Z,34.60
2019-04-26T16:26:25.503Z,35.20
2019-04-26T16:29:06.342Z,35.40
2019-04-26T16:31:42.119Z,35.40
2019-04-26T16:34:27.243Z,35.60
2019-04-26T16:36:58.748Z,36.00
2019-04-26T16:39:38.286Z,36.00
2019-04-26T16:42:05.151Z,36.20
2019-04-26T16:44:33.582Z,36.50
2019-04-26T16:47:05.948Z,36.20
2019-04-26T16:49:41.906Z,36.30
2019-04-26T16:52:08.446Z,36.90
2019-04-26T16:54:38.953Z,37.00
2019-04-26T16:57:11.391Z,36.80
2019-04-26T16:59:48.641Z,37.20
2019-04-26T17:02:16.110Z,37.60
2019-04-26T17:04:45.772Z,37.40
2019-04-26T17:07:21.916Z,37.70
2019-04-26T17:09:57.683Z,37.60
2019-04-26T17:12:20.435Z,37.70
2019-04-26T17:14:52.537Z,38.00
2019-04-26T17:17:23.113Z,38.40
2019-04-26T17:19:53.505Z,38.90
2019-04-26T17:22:44.199Z,39.70
2019-04-26T17:25:17.083Z,40.20
2019-04-26T17:27:47.247Z,40.00
2019-04-26T17:30:19.498Z,42.50
2019-04-26T17:32:51.604Z,42.60
2019-04-26T17:35:22.157Z,45.10
2019-04-26T17:37:52.669Z,46.90
2019-04-26T17:40:25.194Z,47.80
2019-04-26T17:42:55.256Z,49.20
2019-04-26T17:45:26.013Z,50.10
2019-04-26T17:48:01.452Z,50.50
2019-04-26T17:50:35.369Z,50.80
2019-04-26T17:53:06.634Z,51.20
2019-04-26T17:55:36.456Z,52.70
2019-04-26T17:58:12.392Z,54.00
2019-04-26T18:00:46.081Z,55.00
2019-04-26T18:03:14.856Z,57.00
2019-04-26T18:05:56.795Z,57.20
2019-04-26T18:08:33.792Z,60.50
2019-04-26T18:10:48.567Z,64.00
2019-04-26T18:13:19.006Z,65.10
2019-04-26T18:15:49.438Z,64.70
2019-04-26T18:18:39.705Z,65.90
2019-04-26T18:21:28.016Z,67.40
2019-04-26T18:23:58.462Z,70.10
2019-04-26T18:26:28.865Z,70.70
2019-04-26T18:28:59.846Z,70.80
2019-04-26T18:31:30.286Z,70.20
2019-04-26T18:34:01.845Z,72.30
2019-04-26T18:36:33.271Z,72.00
2019-04-26T18:39:05.576Z,71.30
2019-04-26T18:41:37.584Z,72.70
2019-04-26T18:44:08.000Z,74.30
2019-04-26T18:46:51.616Z,74.90
2019-04-26T18:49:24.576Z,74.30
2019-04-26T18:51:54.693Z,74.00
2019-04-26T18:54:26.877Z,73.00
2019-04-26T18:56:58.916Z,74.20
2019-04-26T18:59:29.880Z,74.40
2019-04-26T19:02:00.635Z,74.50
2019-04-26T19:04:31.082Z,75.40
2019-04-26T19:07:01.536Z,76.60
2019-04-26T19:09:45.266Z,75.00
2019-04-26T19:12:06.143Z,74.20
2019-04-26T19:14:49.611Z,75.10
2019-04-26T19:17:36.399Z,75.80
2019-04-26T19:20:25.642Z,76.00
2019-04-26T19:22:57.717Z,76.60
2019-04-26T19:25:29.977Z,76.00
2019-04-26T19:28:04.324Z,76.10
2019-04-26T19:30:32.860Z,76.40
2019-04-26T19:33:03.371Z,76.70
2019-04-26T19:35:35.043Z,76.90
2019-04-26T19:38:07.493Z,80.10
2019-04-26T19:40:39.301Z,79.70
2019-04-26T19:43:10.019Z,79.60
2019-04-26T19:45:52.033Z,80.60
2019-04-26T19:48:41.801Z,81.30
2019-04-26T19:51:29.731Z,81.10
2019-04-26T19:54:02.095Z,81.00
2019-04-26T19:56:51.306Z,81.30
2019-04-26T19:59:23.384Z,81.80
2019-04-26T20:01:56.774Z,82.60
2019-04-26T20:04:30.816Z,83.60
2019-04-26T20:06:58.279Z,82.60
2019-04-26T20:09:28.967Z,83.00
2019-04-26T20:12:02.337Z,83.70
2019-04-26T20:14:44.769Z,84.60
2019-04-26T20:17:04.125Z,84.10
2019-04-26T20:19:37.437Z,83.90
2019-04-26T20:22:06.785Z,84.10
2019-04-26T20:24:37.178Z,83.20
2019-04-26T20:27:07.614Z,82.80
2019-04-26T20:29:40.758Z,83.00
2019-04-26T20:32:12.500Z,83.20
2019-04-26T20:34:45.258Z,84.70
2019-04-26T20:37:22.860Z,86.30
2019-04-26T20:40:15.432Z,85.90
2019-04-26T20:42:25.251Z,86.00
2019-04-26T20:44:56.265Z,87.20
2019-04-26T20:47:28.331Z,86.30
2019-04-26T20:50:02.985Z,85.90
2019-04-26T20:52:34.728Z,85.30
2019-04-26T20:55:06.977Z,84.60
2019-04-26T20:57:37.434Z,83.80
2019-04-26T21:00:13.972Z,84.60
2019-04-26T21:02:44.482Z,85.10
2019-04-26T21:05:16.298Z,86.90
2019-04-26T21:07:49.977Z,87.10
2019-04-26T21:10:21.766Z,87.40
2019-04-26T21:12:52.136Z,86.00
2019-04-26T21:15:24.121Z,87.30
2019-04-26T21:17:56.595Z,88.30
2019-04-26T21:20:27.787Z,87.90
2019-04-26T21:23:04.516Z,87.20
2019-04-26T21:25:45.587Z,88.00
2019-04-26T21:28:23.698Z,87.20
2019-04-26T21:31:07.542Z,87.60
2019-04-26T21:33:54.101Z,87.90
2019-04-26T21:36:45.949Z,88.20
2019-04-26T21:39:20.396Z,88.40
2019-04-26T21:42:08.712Z,88.30
2019-04-26T21:44:39.281Z,88.20
2019-04-26T21:47:09.678Z,88.20
2019-04-26T21:49:43.303Z,88.50
2019-04-26T21:52:13.805Z,88.80
2019-04-26T21:54:48.428Z,89.20
2019-04-26T21:57:18.374Z,89.50
2019-04-26T21:59:49.518Z,89.80
2019-04-26T22:02:20.190Z,89.80
2019-04-26T22:04:50.623Z,89.80
2019-04-26T22:07:21.197Z,90.10
2019-04-26T22:09:59.258Z,90.50
2019-04-26T22:12:31.256Z,90.80
2019-04-26T22:15:18.803Z,90.40
2019-04-26T22:17:51.000Z,90.60
2019-04-26T22:20:38.071Z,90.70
2019-04-26T22:23:26.340Z,90.60
2019-04-26T22:26:00.181Z,90.70
2019-04-26T22:28:31.174Z,91.00
2019-04-26T22:31:06.894Z,90.80
2019-04-26T22:33:34.787Z,91.10
2019-04-26T22:36:05.839Z,91.20
2019-04-26T22:38:36.306Z,91.10
2019-04-26T22:41:06.839Z,91.00
2019-04-26T22:43:39.022Z,91.20
2019-04-26T22:46:28.257Z,91.40
2019-04-26T22:49:01.087Z,92.30
2019-04-26T22:51:28.601Z,92.20
2019-04-26T22:54:02.043Z,91.90
2019-04-26T22:56:32.608Z,91.70
2019-04-26T22:59:04.758Z,91.50
2019-04-26T23:01:35.045Z,91.90
2019-04-26T23:04:07.755Z,91.80
2019-04-26T23:06:38.197Z,91.90
2019-04-26T23:09:11.627Z,92.00
2019-04-26T23:11:46.636Z,92.00
2019-04-26T23:14:19.159Z,91.80
2019-04-26T23:17:05.829Z,92.00
2019-04-26T23:19:33.928Z,92.30
2019-04-26T23:22:04.736Z,92.30
2019-04-26T23:24:35.169Z,92.30
2019-04-26T23:27:05.788Z,92.10
2019-04-26T23:29:36.213Z,92.40
2019-04-26T23:32:06.682Z,92.30
2019-04-26T23:34:37.127Z,92.30
2019-04-26T23:37:07.660Z,92.30
2019-04-26T23:39:38.100Z,92.90
2019-04-26T23:42:08.497Z,93.00
2019-04-26T23:44:40.221Z,92.90
2019-04-26T23:47:20.843Z,92.50
2019-04-26T23:49:43.408Z,92.70
2019-04-26T23:52:14.426Z,92.80
2019-04-26T23:54:46.036Z,93.20
2019-04-26T23:57:16.433Z,93.20
2019-04-26T23:59:51.191Z,93.30
